TAF and METAR

Could not understand the following METAR

YBHI 210700Z AUTO 17001KT 9999 // NCD 14/M01 Q1022
No TAF available for Broken Hill Airport